Time;durP1;ratioP1;P1;durP2;ratioP2;P2;SDS_P1;SDS_P2;PMS_P1;PMS_P2;Temp;Humidity;BMP_temperature;BMP_pressure;BME280_temperature;BME280_humidity;BME280_pressure;Samples;Min_cycle;Max_cycle;Signal;HPM_P1;HPM_P2
2022/09/14 00:01:42;;;;;;;8.50;5.00;;;16.90;99.90;;;;;;5122123;27;20027;-51
2022/09/14 00:04:19;;;;;;;9.07;5.10;;;17.00;99.90;;;;;;5147552;27;20083;-50
2022/09/14 00:06:46;;;;;;;7.47;5.05;;;17.00;99.90;;;;;;5148610;27;20018;-52
2022/09/14 00:09:17;;;;;;;7.00;4.93;;;16.90;99.90;;;;;;5148718;27;20026;-49
2022/09/14 00:11:44;;;;;;;12.38;5.43;;;16.80;99.90;;;;;;5146717;27;20070;-52
2022/09/14 00:14:10;;;;;;;6.38;4.72;;;16.80;99.90;;;;;;5130241;27;20065;-50
2022/09/14 00:16:37;;;;;;;15.25;6.90;;;16.60;99.90;;;;;;5082053;27;20656;-52
2022/09/14 00:19:07;;;;;;;7.60;4.80;;;16.60;99.90;;;;;;5145207;27;20029;-50
2022/09/14 00:21:37;;;;;;;8.57;4.55;;;16.60;99.90;;;;;;5146816;27;20035;-49
2022/09/14 00:24:05;;;;;;;7.80;5.22;;;16.60;99.90;;;;;;5145198;27;20022;-52
2022/09/14 00:26:32;;;;;;;9.35;5.32;;;16.60;99.90;;;;;;5140490;27;20051;-49
2022/09/14 00:29:03;;;;;;;7.85;4.97;;;16.80;99.90;;;;;;5127613;27;20118;-52
2022/09/14 00:31:33;;;;;;;9.00;5.50;;;17.10;99.90;;;;;;5150475;27;20042;-49
2022/09/14 00:34:01;;;;;;;11.10;5.65;;;17.40;99.90;;;;;;5146619;27;20027;-50
2022/09/14 00:36:29;;;;;;;9.55;5.40;;;17.60;99.90;;;;;;5142971;27;20038;-52
2022/09/14 00:38:55;;;;;;;5.65;4.85;;;17.70;99.90;;;;;;5140792;27;20039;-52
2022/09/14 00:41:25;;;;;;;10.32;4.93;;;17.60;99.90;;;;;;5144274;27;20030;-50
2022/09/14 00:43:53;;;;;;;7.07;4.88;;;17.50;99.90;;;;;;5143321;27;20027;-49
2022/09/14 00:46:19;;;;;;;7.15;5.22;;;17.50;99.90;;;;;;5139693;27;20034;-51
2022/09/14 00:48:45;;;;;;;7.68;4.97;;;17.70;99.90;;;;;;5130074;27;20436;-51
2022/09/14 00:51:12;;;;;;;10.80;5.28;;;17.90;99.90;;;;;;5140186;27;20027;-50
2022/09/14 00:53:37;;;;;;;8.05;4.95;;;18.00;99.90;;;;;;5081234;27;20044;-51
2022/09/14 00:56:03;;;;;;;8.73;5.32;;;18.00;99.90;;;;;;5114776;27;20031;-49
2022/09/14 00:58:29;;;;;;;5.35;4.85;;;17.70;99.90;;;;;;5082457;27;20046;-50
2022/09/14 01:00:56;;;;;;;6.13;5.10;;;17.50;99.90;;;;;;5145031;27;20071;-51
2022/09/14 01:03:22;;;;;;;6.43;5.30;;;17.20;99.90;;;;;;5143560;27;20035;-51
2022/09/14 01:06:08;;;;;;;5.95;5.35;;;17.00;99.90;;;;;;5147291;27;20030;-51
2022/09/14 01:09:14;;;;;;;7.03;5.07;;;17.30;99.90;;;;;;5108541;27;20035;-50
2022/09/14 01:11:58;;;;;;;8.23;5.15;;;17.30;99.90;;;;;;5113597;27;20381;-52
2022/09/14 01:15:02;;;;;;;7.32;4.85;;;17.10;99.90;;;;;;5144821;27;20414;-51
2022/09/14 01:17:31;;;;;;;6.20;4.43;;;17.10;99.90;;;;;;5141682;27;20039;-52
2022/09/14 01:20:26;;;;;;;7.45;4.63;;;16.90;99.90;;;;;;5146197;27;20035;-52
2022/09/14 01:23:17;;;;;;;5.35;4.57;;;16.80;99.90;;;;;;5140627;27;20134;-53
2022/09/14 01:26:01;;;;;;;6.65;4.78;;;16.50;99.90;;;;;;5125858;27;20054;-50
2022/09/14 01:28:51;;;;;;;7.53;4.97;;;16.70;99.90;;;;;;5141681;27;20105;-52
2022/09/14 01:31:48;;;;;;;7.68;4.88;;;16.80;99.90;;;;;;5123896;27;20037;-49
2022/09/14 01:34:32;;;;;;;8.15;5.18;;;17.10;99.90;;;;;;5147009;27;20069;-50
2022/09/14 01:37:11;;;;;;;9.18;4.80;;;17.40;99.90;;;;;;5137179;27;20035;-49
2022/09/14 01:39:43;;;;;;;7.40;4.85;;;17.50;99.90;;;;;;5142912;27;20035;-51
2022/09/14 01:42:11;;;;;;;5.63;5.00;;;17.60;99.90;;;;;;5142833;27;20027;-50
2022/09/14 01:44:44;;;;;;;6.57;4.70;;;17.60;99.90;;;;;;5146055;27;20034;-49
2022/09/14 01:47:19;;;;;;;6.75;5.15;;;17.70;99.90;;;;;;5151792;27;20034;-50
2022/09/14 01:49:58;;;;;;;7.85;4.90;;;17.70;99.90;;;;;;5078952;28;20077;-50
2022/09/14 01:52:35;;;;;;;6.15;4.80;;;17.70;99.90;;;;;;5079098;28;20259;-51
2022/09/14 01:55:08;;;;;;;5.55;4.80;;;17.80;99.90;;;;;;5079017;28;20029;-51
2022/09/14 01:58:01;;;;;;;8.90;5.25;;;17.80;99.90;;;;;;5078924;28;20136;-52
2022/09/14 02:00:28;;;;;;;6.30;4.90;;;17.60;99.90;;;;;;5049157;28;20043;-50
2022/09/14 02:03:22;;;;;;;6.35;4.75;;;17.60;99.90;;;;;;5082706;28;20029;-49
2022/09/14 02:05:59;;;;;;;5.05;4.30;;;17.50;99.90;;;;;;5062647;28;20056;-51
2022/09/14 02:08:28;;;;;;;6.47;4.53;;;17.40;99.90;;;;;;5081072;28;20052;-49
2022/09/14 02:10:56;;;;;;;9.82;5.22;;;16.90;99.90;;;;;;5082808;28;20044;-52
2022/09/14 02:13:22;;;;;;;5.18;4.43;;;16.80;99.90;;;;;;5057542;27;20175;-51
2022/09/14 02:15:48;;;;;;;7.35;4.80;;;16.80;99.90;;;;;;5147325;27;20077;-50
2022/09/14 02:18:14;;;;;;;9.25;5.50;;;16.90;99.90;;;;;;5146579;27;20026;-50
2022/09/14 02:20:52;;;;;;;7.70;4.75;;;17.00;99.90;;;;;;5115347;27;20038;-51
2022/09/14 02:23:18;;;;;;;6.95;4.72;;;16.90;99.90;;;;;;5146046;27;20373;-49
2022/09/14 02:25:45;;;;;;;6.50;4.28;;;16.50;99.90;;;;;;5142402;27;20038;-52
2022/09/14 02:28:11;;;;;;;5.57;4.68;;;16.40;99.90;;;;;;5141974;27;20033;-51
2022/09/14 02:30:52;;;;;;;7.60;4.72;;;16.40;99.90;;;;;;5135711;27;20114;-52
2022/09/14 02:33:18;;;;;;;7.25;4.50;;;;;;;;;;5147196;27;20071;-49
2022/09/14 02:35:52;;;;;;;9.32;3.80;;;16.30;99.90;;;;;;5144018;27;20034;-52
2022/09/14 02:38:30;;;;;;;8.20;4.57;;;16.20;99.90;;;;;;5145155;27;20472;-48
2022/09/14 02:41:48;;;;;;;5.03;3.97;;;16.30;99.90;;;;;;5143988;27;20034;-49
2022/09/14 02:44:22;;;;;;;5.95;4.57;;;16.10;99.90;;;;;;5081760;28;20032;-50
2022/09/14 02:47:08;;;;;;;5.55;4.28;;;16.00;99.90;;;;;;5073224;28;20380;-49
2022/09/14 02:49:58;;;;;;;5.78;4.07;;;16.00;99.90;;;;;;5090285;28;20028;-51
2022/09/14 02:52:49;;;;;;;5.30;4.07;;;16.20;99.90;;;;;;5082519;28;20032;-50
2022/09/14 02:55:23;;;;;;;5.25;4.10;;;16.10;99.90;;;;;;5053092;28;20503;-49
2022/09/14 02:58:05;;;;;;;7.85;3.55;;;16.00;99.90;;;;;;5090126;28;20056;-49
2022/09/14 03:00:35;;;;;;;5.60;3.78;;;16.00;99.90;;;;;;5086881;28;20043;-49
2022/09/14 03:03:02;;;;;;;5.90;3.35;;;16.20;99.90;;;;;;5090464;28;20024;-51
2022/09/14 03:05:28;;;;;;;7.32;3.92;;;16.40;99.90;;;;;;5089964;28;20097;-53
2022/09/14 03:07:54;;;;;;;6.13;4.68;;;16.40;99.90;;;;;;5090160;28;20040;-52
2022/09/14 03:10:20;;;;;;;5.78;4.00;;;16.50;99.90;;;;;;5090785;28;20043;-50
2022/09/14 03:12:46;;;;;;;6.43;4.30;;;16.70;99.90;;;;;;5089844;28;20051;-52
2022/09/14 03:15:11;;;;;;;5.15;3.80;;;16.80;99.90;;;;;;5059497;28;20063;-49
2022/09/14 03:17:37;;;;;;;4.82;3.78;;;17.00;99.90;;;;;;5053410;28;20147;-52
2022/09/14 03:20:04;;;;;;;5.13;4.13;;;17.10;99.90;;;;;;5061136;28;20128;-50
2022/09/14 03:22:31;;;;;;;7.07;4.75;;;17.00;99.90;;;;;;5044116;28;20036;-51
2022/09/14 03:24:56;;;;;;;7.13;4.93;;;16.90;99.90;;;;;;5093716;28;20522;-52
2022/09/14 03:27:22;;;;;;;8.70;5.07;;;17.00;99.90;;;;;;5093943;28;20043;-51
2022/09/14 03:29:48;;;;;;;7.43;4.43;;;17.00;99.90;;;;;;5060542;28;20043;-49
2022/09/14 03:32:13;;;;;;;9.50;5.25;;;16.90;99.90;;;;;;5093776;28;20024;-49
2022/09/14 03:34:39;;;;;;;10.30;5.10;;;16.80;99.90;;;;;;5051114;28;20028;-51
2022/09/14 03:37:06;;;;;;;7.40;5.25;;;16.80;99.90;;;;;;5077137;28;20040;-51
2022/09/14 03:39:31;;;;;;;8.55;5.25;;;16.80;99.90;;;;;;5076662;28;20047;-52
2022/09/14 03:41:57;;;;;;;6.43;5.10;;;16.70;99.90;;;;;;5093335;28;20032;-51
2022/09/14 03:44:23;;;;;;;7.15;4.82;;;16.70;99.90;;;;;;5093368;28;20577;-50
2022/09/14 03:46:49;;;;;;;6.57;4.82;;;16.90;99.90;;;;;;5060501;28;20116;-50
2022/09/14 03:49:14;;;;;;;12.18;5.03;;;17.00;99.90;;;;;;5077148;27;20030;-52
2022/09/14 03:51:40;;;;;;;7.35;5.47;;;17.10;99.90;;;;;;5148170;27;20034;-50
2022/09/14 03:54:06;;;;;;;7.75;4.88;;;17.10;99.90;;;;;;5147136;27;20034;-51
2022/09/14 03:56:32;;;;;;;10.02;4.75;;;17.10;99.90;;;;;;5144927;27;20033;-49
2022/09/14 03:58:57;;;;;;;7.10;5.70;;;17.00;99.90;;;;;;5145240;27;20542;-51
2022/09/14 04:01:23;;;;;;;6.65;4.90;;;16.90;99.90;;;;;;5112162;27;20062;-49
2022/09/14 04:03:49;;;;;;;10.77;5.45;;;16.70;99.90;;;;;;5153832;27;20067;-52
2022/09/14 04:06:17;;;;;;;11.05;4.85;;;16.50;99.90;;;;;;5145147;27;20092;-51
2022/09/14 04:08:44;;;;;;;7.88;5.10;;;16.70;99.90;;;;;;5077127;28;20135;-49
2022/09/14 04:11:13;;;;;;;7.18;4.50;;;16.70;99.90;;;;;;5102552;28;20537;-52
2022/09/14 04:13:40;;;;;;;7.35;4.80;;;16.80;99.90;;;;;;5102536;28;20082;-51
2022/09/14 04:16:06;;;;;;;7.45;4.82;;;16.90;99.90;;;;;;5102273;28;20067;-50
2022/09/14 04:18:32;;;;;;;6.97;5.00;;;16.90;99.90;;;;;;5077330;28;20489;-52
2022/09/14 04:21:01;;;;;;;7.15;5.10;;;16.80;99.90;;;;;;5094201;28;20075;-49
2022/09/14 04:23:27;;;;;;;12.65;5.00;;;16.50;99.90;;;;;;5104400;28;20031;-49
2022/09/14 04:25:53;;;;;;;7.03;4.90;;;16.20;99.90;;;;;;5103445;28;20510;-50
2022/09/14 04:28:19;;;;;;;10.25;5.05;;;16.20;99.90;;;;;;5084931;28;20048;-50
2022/09/14 04:30:54;;;;;;;7.57;5.18;;;16.20;99.90;;;;;;5098422;28;20097;-53
2022/09/14 04:33:20;;;;;;;8.15;4.95;;;16.30;99.90;;;;;;5097972;28;20047;-51
2022/09/14 04:35:59;;;;;;;9.07;4.65;;;16.30;99.90;;;;;;5068182;28;20396;-52
2022/09/14 04:38:25;;;;;;;7.05;4.78;;;16.20;99.90;;;;;;5105508;28;20545;-49
2022/09/14 04:40:51;;;;;;;6.38;5.25;;;16.20;99.90;;;;;;5097277;28;20067;-50
2022/09/14 04:43:17;;;;;;;7.88;5.03;;;16.00;99.90;;;;;;5060983;28;20080;-51
2022/09/14 04:45:43;;;;;;;6.90;5.68;;;15.80;99.90;;;;;;5045789;27;20157;-50
2022/09/14 04:48:08;;;;;;;7.57;5.05;;;15.70;99.90;;;;;;5141545;27;20039;-49
2022/09/14 04:50:35;;;;;;;8.50;5.07;;;15.60;99.90;;;;;;5150860;27;20037;-51
2022/09/14 04:53:01;;;;;;;7.35;5.28;;;15.80;99.90;;;;;;5145960;27;20465;-50
2022/09/14 04:55:26;;;;;;;5.47;4.97;;;16.00;99.90;;;;;;5149504;27;20034;-51
2022/09/14 04:57:52;;;;;;;8.35;5.65;;;15.80;99.90;;;;;;5147154;27;20448;-51
2022/09/14 05:00:18;;;;;;;7.20;4.60;;;15.90;99.90;;;;;;5142677;27;20477;-52
2022/09/14 05:02:44;;;;;;;8.23;5.03;;;16.00;99.90;;;;;;5147414;27;20041;-50
2022/09/14 05:05:10;;;;;;;9.20;4.43;;;15.80;99.90;;;;;;5141201;27;20034;-50
2022/09/14 05:07:35;;;;;;;13.35;4.68;;;15.90;99.90;;;;;;5144526;27;20055;-49
2022/09/14 05:10:01;;;;;;;8.25;4.93;;;16.00;99.90;;;;;;5143269;27;20403;-52
2022/09/14 05:12:29;;;;;;;8.05;5.18;;;15.80;99.90;;;;;;5116786;27;20035;-51
2022/09/14 05:14:54;;;;;;;7.25;4.78;;;16.10;99.90;;;;;;5144925;27;20477;-51
2022/09/14 05:17:20;;;;;;;7.18;5.13;;;16.30;99.90;;;;;;5144371;27;20083;-49
2022/09/14 05:19:46;;;;;;;7.38;6.10;;;16.40;99.90;;;;;;5067983;27;20077;-52
2022/09/14 05:22:13;;;;;;;6.57;5.47;;;16.40;99.90;;;;;;5147038;27;20056;-52
2022/09/14 05:24:39;;;;;;;9.15;6.22;;;16.70;99.90;;;;;;5146042;27;20030;-50
2022/09/14 05:27:04;;;;;;;7.43;5.63;;;16.80;99.90;;;;;;5035238;27;20367;-52
2022/09/14 05:29:30;;;;;;;9.20;5.63;;;17.00;99.90;;;;;;5106349;27;20125;-53
2022/09/14 05:31:56;;;;;;;8.02;5.43;;;17.20;99.90;;;;;;5140145;27;20034;-52
2022/09/14 05:34:22;;;;;;;7.15;5.00;;;17.40;99.90;;;;;;5106378;27;20035;-51
2022/09/14 05:36:48;;;;;;;8.98;4.90;;;17.60;99.90;;;;;;5152553;27;20034;-51
2022/09/14 05:39:14;;;;;;;7.95;4.60;;;17.70;99.90;;;;;;5099929;27;20039;-50
2022/09/14 05:41:39;;;;;;;7.60;5.03;;;17.60;99.90;;;;;;5140437;27;20019;-51
2022/09/14 05:44:06;;;;;;;8.40;5.03;;;17.70;99.90;;;;;;5111206;27;20516;-50
2022/09/14 05:46:32;;;;;;;7.68;5.13;;;17.90;99.90;;;;;;5108861;27;20042;-51
2022/09/14 05:48:57;;;;;;;6.15;3.90;;;17.80;99.90;;;;;;5076472;27;20060;-50
2022/09/14 05:51:25;;;;;;;5.97;4.47;;;17.90;99.90;;;;;;5138588;27;20023;-50
2022/09/14 05:53:54;;;;;;;6.50;3.70;;;18.00;99.90;;;;;;5140989;27;20082;-52
2022/09/14 05:56:23;;;;;;;7.63;4.68;;;17.90;99.90;;;;;;5148257;27;20054;-50
2022/09/14 05:58:49;;;;;;;9.35;3.85;;;18.00;99.90;;;;;;5113721;27;20041;-49
2022/09/14 06:01:20;;;;;;;10.05;4.18;;;18.10;99.90;;;;;;5155298;27;20029;-52
2022/09/14 06:03:47;;;;;;;6.45;3.70;;;18.40;99.90;;;;;;5144767;27;20092;-51
2022/09/14 06:06:17;;;;;;;5.45;3.33;;;18.40;99.90;;;;;;5112169;27;20039;-53
2022/09/14 06:08:44;;;;;;;8.35;3.55;;;18.30;99.90;;;;;;5141252;27;20026;-50
2022/09/14 06:11:15;;;;;;;5.07;3.53;;;18.50;99.90;;;;;;5134372;27;20466;-53
2022/09/14 06:13:42;;;;;;;8.07;3.25;;;18.80;99.90;;;;;;5109070;27;20046;-50
2022/09/14 06:16:14;;;;;;;3.35;2.72;;;18.80;99.90;;;;;;5139639;27;20031;-53
2022/09/14 06:18:42;;;;;;;6.78;3.38;;;19.00;99.90;;;;;;5100721;27;20047;-51
2022/09/14 06:21:10;;;;;;;5.28;2.67;;;19.20;99.90;;;;;;5146699;27;20074;-51
2022/09/14 06:23:35;;;;;;;3.80;2.58;;;19.20;99.90;;;;;;5143131;27;20048;-52
2022/09/14 06:26:03;;;;;;;5.43;2.92;;;19.50;99.90;;;;;;5112273;28;20051;-52
2022/09/14 06:28:30;;;;;;;4.72;3.60;;;19.60;99.90;;;;;;5118407;28;20482;-49
2022/09/14 06:30:56;;;;;;;6.70;3.30;;;20.00;99.90;;;;;;5136990;27;20023;-52
2022/09/14 06:33:22;;;;;;;6.25;3.50;;;20.40;99.90;;;;;;5136344;27;20026;-52
2022/09/14 06:36:22;;;;;;;6.40;3.65;;;20.60;99.90;;;;;;5134888;27;20079;-50
2022/09/14 06:38:48;;;;;;;5.45;3.33;;;21.10;99.90;;;;;;5041261;28;20186;-49
2022/09/14 06:41:16;;;;;;;5.90;3.33;;;;;;;;;;5033694;28;20056;-49
2022/09/14 06:43:43;;;;;;;5.50;3.40;;;21.80;99.90;;;;;;5036434;28;20183;-52
2022/09/14 06:46:12;;;;;;;8.65;3.35;;;22.00;99.90;;;;;;5020733;28;20048;-50
2022/09/14 06:48:44;;;;;;;6.40;3.55;;;22.30;99.90;;;;;;5040423;28;20036;-51
2022/09/14 06:51:13;;;;;;;7.22;4.00;;;22.30;99.90;;;;;;5043643;28;20124;-52
2022/09/14 06:53:39;;;;;;;6.10;3.60;;;22.50;99.90;;;;;;5043213;28;20029;-51
2022/09/14 06:56:04;;;;;;;6.38;3.80;;;22.60;99.90;;;;;;5044048;28;20036;-51
2022/09/14 06:58:32;;;;;;;6.35;3.60;;;22.70;99.90;;;;;;5031132;28;20047;-51
2022/09/14 07:01:06;;;;;;;6.82;3.30;;;22.80;99.90;;;;;;5053680;28;20056;-52
2022/09/14 07:03:35;;;;;;;11.45;3.63;;;22.90;99.90;;;;;;5047727;28;20080;-48
2022/09/14 07:06:07;;;;;;;11.15;3.50;;;23.10;99.90;;;;;;5047166;28;20072;-51
2022/09/14 07:08:34;;;;;;;4.45;3.50;;;23.20;99.90;;;;;;5021227;28;20036;-50
2022/09/14 07:11:00;;;;;;;5.28;3.15;;;22.90;99.90;;;;;;5053629;28;20108;-50
2022/09/14 07:13:28;;;;;;;7.45;2.88;;;22.90;99.90;;;;;;5059200;27;20045;-49
2022/09/14 07:15:54;;;;;;;8.10;2.97;;;23.30;99.90;;;;;;5108971;27;20080;-50
2022/09/14 07:18:21;;;;;;;5.53;3.20;;;23.60;99.90;;;;;;5111100;27;20035;-52
2022/09/14 07:20:48;;;;;;;6.63;3.03;;;23.80;99.90;;;;;;5143362;27;20076;-52
2022/09/14 07:23:14;;;;;;;3.75;2.50;;;24.10;99.90;;;;;;5144493;27;20031;-51
2022/09/14 07:25:41;;;;;;;5.03;2.35;;;24.40;99.90;;;;;;5113963;27;20149;-52
2022/09/14 07:28:07;;;;;;;7.40;3.50;;;;;;;;;;5139907;27;20073;-52
2022/09/14 07:30:37;;;;;;;6.13;2.90;;;24.60;99.90;;;;;;5136371;27;20034;-51
2022/09/14 07:33:04;;;;;;;7.20;5.10;;;24.70;99.90;;;;;;5144353;27;20027;-52
2022/09/14 07:35:30;;;;;;;8.85;5.07;;;;;;;;;;5145448;27;20042;-52
2022/09/14 07:37:56;;;;;;;6.05;3.70;;;;;;;;;;5148889;27;20034;-53
2022/09/14 07:40:22;;;;;;;7.65;3.90;;;25.60;99.90;;;;;;5136481;27;20035;-52
2022/09/14 07:42:52;;;;;;;5.05;2.92;;;;;;;;;;5145068;27;20053;-52
2022/09/14 07:45:18;;;;;;;4.63;3.15;;;;;;;;;;5141606;27;20035;-53
2022/09/14 07:47:44;;;;;;;4.10;2.60;;;;;;;;;;5142879;27;20170;-50
2022/09/14 07:50:10;;;;;;;7.18;3.40;;;;;;;;;;5119330;27;20049;-53
2022/09/14 07:52:37;;;;;;;7.13;3.20;;;26.70;99.90;;;;;;5142764;27;20362;-52
2022/09/14 07:55:04;;;;;;;4.95;3.20;;;;;;;;;;5147733;27;20521;-53
2022/09/14 07:57:30;;;;;;;4.07;3.10;;;;;;;;;;5093923;27;20122;-49
2022/09/14 07:59:57;;;;;;;7.43;4.00;;;27.00;99.90;;;;;;5145765;27;20059;-51
2022/09/14 08:02:23;;;;;;;6.20;3.05;;;26.90;99.90;;;;;;5153669;27;20031;-48
2022/09/14 08:04:51;;;;;;;7.82;2.95;;;27.10;99.90;;;;;;5146982;27;20034;-50
2022/09/14 08:07:18;;;;;;;4.82;2.85;;;;;;;;;;5141752;27;20030;-50
2022/09/14 08:09:44;;;;;;;6.18;2.75;;;27.80;99.90;;;;;;5145577;27;20022;-51
2022/09/14 08:12:10;;;;;;;5.63;3.30;;;28.10;99.90;;;;;;5144900;27;20154;-51
2022/09/14 08:14:36;;;;;;;5.18;2.97;;;;;;;;;;5145347;27;20055;-50
2022/09/14 08:17:02;;;;;;;5.85;2.97;;;28.20;99.90;;;;;;5155347;27;20027;-53
2022/09/14 08:19:29;;;;;;;5.90;2.83;;;;;;;;;;5139128;27;20047;-50
2022/09/14 08:21:55;;;;;;;7.60;2.83;;;;;;;;;;5147960;27;20034;-50
2022/09/14 08:24:21;;;;;;;5.82;2.88;;;28.90;99.90;;;;;;5148191;27;20030;-50
2022/09/14 08:26:47;;;;;;;4.40;2.63;;;29.10;99.90;;;;;;5136605;27;20478;-52
2022/09/14 08:29:14;;;;;;;3.53;2.53;;;;;;;;;;5148238;27;20034;-50
2022/09/14 08:31:42;;;;;;;3.13;2.40;;;;;;;;;;5143875;27;20019;-53
2022/09/14 08:34:09;;;;;;;5.55;2.50;;;;;;;;;;5149688;27;20496;-54
2022/09/14 08:36:36;;;;;;;5.40;2.70;;;;;;;;;;5135626;27;20034;-50
2022/09/14 08:39:05;;;;;;;4.97;2.55;;;30.40;99.90;;;;;;5146366;27;20472;-51
2022/09/14 08:41:43;;;;;;;4.03;2.42;;;30.20;99.90;;;;;;5142415;27;20023;-51
2022/09/14 08:44:09;;;;;;;4.97;2.17;;;;;;;;;;5141717;27;20034;-52
2022/09/14 08:46:39;;;;;;;3.65;2.15;;;;;;;;;;5149794;27;20393;-50
2022/09/14 08:49:15;;;;;;;5.15;2.50;;;30.90;99.90;;;;;;5142868;27;20047;-51
2022/09/14 08:51:41;;;;;;;3.80;2.50;;;31.10;99.90;;;;;;5140060;27;21191;-50
2022/09/14 08:54:09;;;;;;;4.65;2.45;;;31.30;99.90;;;;;;5140405;27;20105;-50
2022/09/14 08:56:42;;;;;;;4.18;2.30;;;31.60;99.90;;;;;;5149391;27;20027;-51
2022/09/14 08:59:20;;;;;;;66.32;25.00;;;;;;;;;;5079589;27;20037;-48
2022/09/14 09:02:05;;;;;;;6.53;3.08;;;;;;;;;;5111884;27;20127;-53
2022/09/14 09:05:06;;;;;;;20.90;6.18;;;32.60;98.40;;;;;;5143382;27;20085;-52
2022/09/14 09:07:38;;;;;;;5.20;2.35;;;;;;;;;;5049180;28;20095;-54
2022/09/14 09:10:06;;;;;;;16.77;6.68;;;;;;;;;;5032403;28;20043;-52
2022/09/14 09:12:46;;;;;;;4.28;2.38;;;33.50;95.80;;;;;;5047437;28;20063;-51
2022/09/14 09:15:35;;;;;;;4.43;2.83;;;33.40;96.90;;;;;;5049715;28;20051;-49
2022/09/14 09:18:12;;;;;;;3.60;2.38;;;33.60;95.40;;;;;;5048545;28;20072;-53
2022/09/14 09:21:14;;;;;;;27.25;11.50;;;34.30;97.50;;;;;;5049383;28;20052;-52
2022/09/14 09:23:40;;;;;;;9.25;5.57;;;34.50;95.00;;;;;;4949493;28;20058;-49
2022/09/14 09:26:24;;;;;;;12.05;7.15;;;34.30;95.10;;;;;;4948651;28;20070;-47
2022/09/14 09:28:59;;;;;;;13.55;6.97;;;34.10;95.50;;;;;;4911898;28;20050;-47
2022/09/14 09:31:38;;;;;;;13.93;7.55;;;34.20;94.80;;;;;;4955899;28;20465;-52
2022/09/14 09:34:05;;;;;;;8.88;4.15;;;34.20;94.10;;;;;;4937567;29;20039;-53
2022/09/14 09:36:39;;;;;;;8.35;3.97;;;34.50;94.30;;;;;;4947559;28;20040;-45
2022/09/14 09:39:05;;;;;;;6.60;3.80;;;34.40;93.00;;;;;;4947106;28;20562;-51
2022/09/14 09:41:43;;;;;;;8.15;4.22;;;35.00;93.20;;;;;;4950025;28;20075;-49
2022/09/14 09:44:09;;;;;;;6.85;3.08;;;35.20;92.90;;;;;;4972259;28;20038;-50
2022/09/14 09:46:48;;;;;;;2.47;1.85;;;35.10;92.00;;;;;;5029956;28;20414;-50
2022/09/14 09:49:25;;;;;;;3.63;2.20;;;;;;;;;;4994093;28;20038;-49
2022/09/14 09:51:52;;;;;;;5.53;3.03;;;35.40;91.90;;;;;;5028196;28;20033;-49
2022/09/14 09:54:24;;;;;;;6.88;2.70;;;35.20;91.70;;;;;;5029045;28;20037;-49
2022/09/14 09:57:04;;;;;;;3.55;1.95;;;;;;;;;;5025599;28;20025;-51
2022/09/14 09:59:39;;;;;;;3.22;1.80;;;35.80;91.80;;;;;;5028199;27;20041;-50
2022/09/14 10:02:30;;;;;;;7.57;3.80;;;36.30;91.40;;;;;;5140311;27;20042;-50
2022/09/14 10:04:56;;;;;;;2.55;1.13;;;36.40;91.50;;;;;;5140719;27;20461;-50
2022/09/14 10:07:22;;;;;;;5.53;1.80;;;36.50;87.50;;;;;;5144898;27;20026;-50
2022/09/14 10:10:05;;;;;;;2.10;1.40;;;36.30;86.00;;;;;;5142582;27;20064;-49
2022/09/14 10:12:31;;;;;;;1.95;1.40;;;36.50;85.40;;;;;;5142562;27;20031;-49
2022/09/14 10:15:16;;;;;;;1.50;1.30;;;36.60;86.00;;;;;;5143823;27;20030;-49
2022/09/14 10:18:02;;;;;;;2.42;1.55;;;;;;;;;;5071657;28;20170;-49
2022/09/14 10:20:28;;;;;;;2.72;1.67;;;36.80;86.90;;;;;;5065127;28;20036;-50
2022/09/14 10:22:54;;;;;;;3.17;1.35;;;36.90;85.80;;;;;;5085379;28;20041;-49
2022/09/14 10:25:25;;;;;;;3.08;1.65;;;36.70;86.40;;;;;;5071208;28;20507;-49
2022/09/14 10:27:53;;;;;;;3.03;1.50;;;34.40;84.20;;;;;;5084918;28;20035;-50
2022/09/14 10:30:22;;;;;;;3.92;1.65;;;34.40;85.00;;;;;;5086849;28;20715;-49
2022/09/14 10:33:00;;;;;;;3.47;1.80;;;34.50;83.40;;;;;;5084508;28;20052;-55
2022/09/14 10:36:03;;;;;;;2.05;1.20;;;34.60;86.00;;;;;;5047212;28;20412;-50
2022/09/14 10:38:32;;;;;;;1.55;1.20;;;34.00;84.20;;;;;;5031940;28;20052;-51
2022/09/14 10:41:29;;;;;;;2.60;1.67;;;33.30;88.70;;;;;;5046480;28;20032;-52
2022/09/14 10:44:26;;;;;;;6.63;1.60;;;32.70;87.80;;;;;;5044479;28;20037;-49
2022/09/14 10:46:55;;;;;;;2.30;1.33;;;33.40;87.60;;;;;;5048902;28;20039;-49
2022/09/14 10:49:39;;;;;;;2.97;1.40;;;33.40;84.60;;;;;;5036529;28;20132;-50
2022/09/14 10:52:17;;;;;;;2.08;1.58;;;33.80;84.40;;;;;;5050262;28;20120;-48
2022/09/14 10:54:55;;;;;;;2.92;1.35;;;34.20;84.20;;;;;;5049413;28;20021;-48
2022/09/14 10:57:48;;;;;;;3.03;1.70;;;33.80;84.30;;;;;;5015428;28;20091;-50
2022/09/14 11:00:21;;;;;;;3.25;1.08;;;33.80;85.80;;;;;;5049973;28;20037;-51
2022/09/14 11:02:58;;;;;;;10.88;2.80;;;33.60;80.00;;;;;;5034346;28;20033;-50
2022/09/14 11:05:37;;;;;;;4.22;1.20;;;33.50;82.20;;;;;;5051844;28;20040;-49
2022/09/14 11:08:19;;;;;;;3.42;1.98;;;33.80;84.90;;;;;;5084502;28;20031;-49
2022/09/14 11:10:53;;;;;;;2.40;1.10;;;34.10;84.80;;;;;;5084655;28;20504;-48
2022/09/14 11:13:42;;;;;;;4.15;1.38;;;34.60;81.80;;;;;;5086311;28;20051;-50
2022/09/14 11:16:25;;;;;;;3.97;1.60;;;34.90;81.80;;;;;;5010447;28;20617;-54
2022/09/14 11:19:28;;;;;;;4.40;1.83;;;35.30;83.40;;;;;;5008026;28;20038;-49
2022/09/14 11:22:00;;;;;;;4.18;1.75;;;;;;;;;;5069343;28;20074;-46
2022/09/14 11:24:48;;;;;;;2.90;1.05;;;34.70;94.20;;;;;;5074101;28;20104;-49
2022/09/14 11:27:24;;;;;;;3.85;1.00;;;34.90;94.10;;;;;;5068927;28;20049;-51
2022/09/14 11:29:58;;;;;;;1.92;1.23;;;35.10;94.20;;;;;;5044273;28;20045;-50
2022/09/14 11:32:39;;;;;;;1.40;0.93;;;34.80;79.60;;;;;;5067210;28;20029;-51
2022/09/14 11:35:13;;;;;;;0.88;0.85;;;;;;;;;;5071129;28;20064;-50
2022/09/14 11:37:59;;;;;;;2.90;1.35;;;33.80;99.20;;;;;;5071020;28;20518;-48
2022/09/14 11:40:40;;;;;;;2.92;1.05;;;33.50;95.10;;;;;;5069708;28;20167;-47
2022/09/14 11:43:18;;;;;;;2.92;0.90;;;;;;;;;;5026716;28;20514;-50
2022/09/14 11:46:07;;;;;;;5.43;1.08;;;;;;;;;;5073930;28;20037;-49
2022/09/14 11:48:33;;;;;;;5.85;1.60;;;;;;;;;;4995624;28;20057;-51
2022/09/14 11:51:08;;;;;;;6.15;1.08;;;;;;;;;;5028145;28;20045;-48
2022/09/14 11:53:34;;;;;;;3.03;1.23;;;;;;;;;;5046548;28;20037;-50
2022/09/14 11:56:00;;;;;;;5.63;1.70;;;;;;;;;;5021821;28;20044;-47
2022/09/14 11:58:28;;;;;;;1.70;1.00;;;;;;;;;;5033543;28;20036;-49
2022/09/14 12:01:03;;;;;;;1.13;0.90;;;;;;;;;;5069760;28;20087;-48
2022/09/14 12:03:50;;;;;;;1.40;0.80;;;;;;;;;;5052582;28;20395;-47
2022/09/14 12:06:34;;;;;;;3.35;1.83;;;34.50;93.20;;;;;;5068464;28;20076;-48
2022/09/14 12:09:24;;;;;;;2.55;1.10;;;34.50;94.60;;;;;;5066270;28;20498;-49
2022/09/14 12:11:55;;;;;;;3.30;1.20;;;34.80;81.80;;;;;;5067927;28;20036;-49
2022/09/14 12:14:26;;;;;;;3.35;1.23;;;35.00;81.20;;;;;;5059370;28;20750;-49
2022/09/14 12:17:21;;;;;;;1.63;0.90;;;34.90;82.80;;;;;;5059757;28;20116;-49
2022/09/14 12:19:51;;;;;;;1.95;1.30;;;34.90;82.70;;;;;;5064556;28;20542;-48
2022/09/14 12:22:37;;;;;;;2.45;1.40;;;35.00;81.90;;;;;;5069459;28;20033;-50
2022/09/14 12:25:23;;;;;;;5.25;1.83;;;34.60;81.50;;;;;;5091133;27;20047;-49
2022/09/14 12:27:49;;;;;;;4.90;1.48;;;34.50;94.40;;;;;;5143224;27;20039;-49
2022/09/14 12:30:53;;;;;;;2.92;1.83;;;34.30;93.60;;;;;;5062128;27;20041;-49
2022/09/14 12:33:34;;;;;;;4.70;1.70;;;34.40;92.90;;;;;;5146113;27;20073;-49
2022/09/14 12:36:13;;;;;;;2.80;1.30;;;34.40;93.50;;;;;;5109719;27;20367;-50
2022/09/14 12:38:39;;;;;;;1.58;1.25;;;34.50;84.10;;;;;;5144136;27;20023;-48
2022/09/14 12:41:13;;;;;;;0.98;0.75;;;34.90;93.70;;;;;;5147572;27;20080;-49
2022/09/14 12:43:49;;;;;;;2.22;1.17;;;35.30;90.10;;;;;;5148345;27;20054;-48
2022/09/14 12:46:21;;;;;;;1.27;1.08;;;35.40;89.30;;;;;;5141935;27;20095;-48
2022/09/14 12:48:51;;;;;;;2.63;1.20;;;35.60;80.80;;;;;;5143327;27;20117;-48
2022/09/14 12:51:30;;;;;;;4.72;1.70;;;;;;;;;;5149587;27;20166;-48
2022/09/14 12:54:15;;;;;;;3.50;1.02;;;35.80;81.80;;;;;;5144203;27;20058;-48
2022/09/14 12:56:59;;;;;;;2.85;1.13;;;36.00;80.10;;;;;;5102538;27;20027;-48
2022/09/14 12:59:40;;;;;;;2.20;1.10;;;;;;;;;;5146089;27;20034;-50
2022/09/14 13:02:27;;;;;;;3.15;1.77;;;36.00;82.00;;;;;;5133340;27;20027;-48
2022/09/14 13:04:55;;;;;;;2.55;1.13;;;35.80;80.80;;;;;;5149885;27;20113;-48
2022/09/14 13:07:24;;;;;;;3.05;1.17;;;35.70;80.60;;;;;;5144504;27;20063;-49
2022/09/14 13:09:56;;;;;;;2.72;1.02;;;34.80;80.50;;;;;;5139640;27;20051;-50
2022/09/14 13:12:33;;;;;;;4.35;2.75;;;34.80;81.40;;;;;;5139490;27;20012;-49
2022/09/14 13:15:00;;;;;;;2.30;1.63;;;;;;;;;;5115051;27;20027;-49
2022/09/14 13:17:26;;;;;;;1.55;1.10;;;;;;;;;;5144471;27;20417;-47
2022/09/14 13:19:55;;;;;;;2.88;1.20;;;;;;;;;;5106446;27;20139;-47
2022/09/14 13:22:23;;;;;;;2.08;1.20;;;;;;;;;;5141665;27;20022;-49
2022/09/14 13:24:49;;;;;;;3.53;1.20;;;;;;;;;;5088902;27;20042;-49
2022/09/14 13:27:34;;;;;;;2.17;1.00;;;;;;;;;;5144909;27;20030;-47
2022/09/14 13:30:17;;;;;;;2.15;1.40;;;;;;;;;;5146381;27;20059;-49